Time,TemperatureF,DewpointF,PressureIn,WindDirection,WindDirectionDegrees,WindSpeedMPH,WindSpeedGustMPH,Humidity,HourlyPrecipIn,Conditions,Clouds,dailyrainin,SoftwareType,DateUTC
2013-04-23 00:02:00,67.5,63.5,30.08,ENE,59,5.0,6.0,87,0.00,,,0.13,Wunderground v.1.13,2013-04-23 04:02:00,
2013-04-23 00:04:00,67.5,63.5,30.08,NE,35,4.0,14.0,87,0.00,,,0.13,Wunderground v.1.13,2013-04-23 04:04:00,
2013-04-23 00:08:00,67.5,63.5,30.08,ENE,65,3.0,5.0,87,0.00,,,0.13,Wunderground v.1.13,2013-04-23 04:08:00,
2013-04-23 00:12:00,67.4,63.4,30.08,NE,55,3.0,3.0,87,0.00,,,0.13,Wunderground v.1.13,2013-04-23 04:12:00,
2013-04-23 00:14:00,67.4,63.7,30.08,ENE,67,2.0,12.0,88,0.00,,,0.13,Wunderground v.1.13,2013-04-23 04:14:00,
2013-04-23 00:20:00,67.1,63.1,30.08,East,81,6.0,6.0,87,0.00,,,0.13,Wunderground v.1.13,2013-04-23 04:20:00,
2013-04-23 00:26:00,67.1,63.4,30.07,ENE,60,7.0,13.0,88,0.00,,,0.13,Wunderground v.1.13,2013-04-23 04:26:00,
2013-04-23 00:32:00,67.0,63.0,30.07,ENE,74,7.0,14.0,87,0.00,,,0.13,Wunderground v.1.13,2013-04-23 04:32:00,
2013-04-23 00:38:00,67.1,63.1,30.07,ENE,64,7.0,13.0,87,0.00,,,0.13,Wunderground v.1.13,2013-04-23 04:38:00,
2013-04-23 00:44:00,67.0,63.0,30.07,ENE,67,5.0,13.0,87,0.00,,,0.00,Wunderground v.1.13,2013-04-23 04:44:00,
2013-04-23 00:50:00,67.0,63.0,30.07,East,87,3.0,13.0,87,0.00,,,0.00,Wunderground v.1.13,2013-04-23 04:50:00,
2013-04-23 00:56:00,66.9,63.2,30.07,NE,56,3.0,13.0,88,0.00,,,0.00,Wunderground v.1.13,2013-04-23 04:56:00,
2013-04-23 01:02:00,66.8,63.1,30.07,ENE,64,3.0,13.0,88,0.00,,,0.00,Wunderground v.1.13,2013-04-23 05:02:00,
2013-04-23 01:08:00,66.8,63.1,30.07,ENE,71,3.0,10.0,88,0.00,,,0.00,Wunderground v.1.13,2013-04-23 05:08:00,
2013-04-23 01:14:00,66.8,63.5,30.07,ENE,61,4.0,4.0,89,0.00,,,0.00,Wunderground v.1.13,2013-04-23 05:14:00,
2013-04-23 01:20:00,66.8,63.5,30.07,ENE,68,1.0,14.0,89,0.00,,,0.00,Wunderground v.1.13,2013-04-23 05:20:00,
2013-04-23 01:26:00,66.7,63.4,30.07,ENE,71,3.0,5.0,89,0.00,,,0.00,Wunderground v.1.13,2013-04-23 05:26:00,
2013-04-23 01:32:00,66.7,63.4,30.07,ENE,67,5.0,14.0,89,0.00,,,0.00,Wunderground v.1.13,2013-04-23 05:32:00,
2013-04-23 01:38:00,66.8,63.5,30.07,ENE,61,3.0,14.0,89,0.00,,,0.00,Wunderground v.1.13,2013-04-23 05:38:00,
2013-04-23 01:44:00,66.8,63.5,30.07,ENE,63,2.0,6.0,89,0.00,,,0.00,Wunderground v.1.13,2013-04-23 05:44:00,
2013-04-23 01:50:00,66.8,63.5,30.07,NE,46,2.0,14.0,89,0.00,,,0.00,Wunderground v.1.13,2013-04-23 05:50:00,
2013-04-23 01:56:00,66.9,63.6,30.07,ENE,59,2.0,14.0,89,0.00,,,0.00,Wunderground v.1.13,2013-04-23 05:56:00,
2013-04-23 02:02:00,66.9,63.6,30.06,ENE,74,3.0,14.0,89,0.00,,,0.00,Wunderground v.1.13,2013-04-23 06:02:00,
2013-04-23 02:08:00,66.9,63.9,30.06,NE,49,3.0,3.0,90,0.00,,,0.00,Wunderground v.1.13,2013-04-23 06:08:00,
2013-04-23 02:14:00,66.8,63.5,30.06,NNE,32,1.0,7.0,89,0.00,,,0.00,Wunderground v.1.13,2013-04-23 06:14:00,
2013-04-23 02:20:00,66.7,63.4,30.06,ENE,72,2.0,11.0,89,0.00,,,0.00,Wunderground v.1.13,2013-04-23 06:20:00,
2013-04-23 02:26:00,66.6,63.6,30.06,NE,55,4.0,11.0,90,0.00,,,0.00,Wunderground v.1.13,2013-04-23 06:26:00,
2013-04-23 02:32:00,66.5,63.5,30.06,ENE,67,3.0,11.0,90,0.00,,,0.00,Wunderground v.1.13,2013-04-23 06:32:00,
2013-04-23 02:38:00,66.3,63.3,30.05,NE,49,2.0,11.0,90,0.00,,,0.00,Wunderground v.1.13,2013-04-23 06:38:00,
2013-04-23 02:44:00,66.3,63.3,30.05,ENE,57,3.0,4.0,90,0.00,,,0.00,Wunderground v.1.13,2013-04-23 06:44:00,
2013-04-23 02:50:00,66.4,63.4,30.05,East,87,4.0,11.0,90,0.00,,,0.00,Wunderground v.1.13,2013-04-23 06:50:00,
2013-04-23 02:56:00,66.4,63.4,30.05,East,82,5.0,11.0,90,0.00,,,0.00,Wunderground v.1.13,2013-04-23 06:56:00,
2013-04-23 03:02:00,66.5,63.5,30.04,ENE,69,3.0,11.0,90,0.00,,,0.00,Wunderground v.1.13,2013-04-23 07:02:00,
2013-04-23 03:08:00,66.6,63.6,30.04,NE,52,1.0,2.0,90,0.00,,,0.00,Wunderground v.1.13,2013-04-23 07:08:00,
2013-04-23 03:14:00,66.6,63.6,30.04,ENE,61,0.0,0.0,90,0.00,,,0.00,Wunderground v.1.13,2013-04-23 07:14:00,
2013-04-23 03:20:00,66.6,63.6,30.04,ENE,71,0.0,14.0,90,0.00,,,0.00,Wunderground v.1.13,2013-04-23 07:20:00,
2013-04-23 03:26:00,66.7,63.7,30.04,NE,49,0.0,14.0,90,0.00,,,0.00,Wunderground v.1.13,2013-04-23 07:26:00,
2013-04-23 03:32:00,66.8,63.8,30.04,ENE,63,0.0,14.0,90,0.00,,,0.00,Wunderground v.1.13,2013-04-23 07:32:00,
2013-04-23 03:38:00,66.8,63.8,30.03,ENE,71,0.0,14.0,90,0.00,,,0.00,Wunderground v.1.13,2013-04-23 07:38:00,
2013-04-23 03:44:00,66.9,63.9,30.03,ENE,72,0.0,14.0,90,0.00,,,0.00,Wunderground v.1.13,2013-04-23 07:44:00,
2013-04-23 03:50:00,66.8,63.8,30.03,NE,46,0.0,14.0,90,0.00,,,0.00,Wunderground v.1.13,2013-04-23 07:50:00,
2013-04-23 03:56:00,66.8,63.8,30.03,ENE,72,0.0,14.0,90,0.00,,,0.00,Wunderground v.1.13,2013-04-23 07:56:00,
2013-04-23 04:02:00,66.7,63.7,30.03,ENE,64,1.0,14.0,90,0.00,,,0.00,Wunderground v.1.13,2013-04-23 08:02:00,
2013-04-23 04:08:00,66.6,63.3,30.03,NE,38,3.0,7.0,89,0.00,,,0.00,Wunderground v.1.13,2013-04-23 08:08:00,
2013-04-23 04:14:00,66.5,63.5,30.03,ENE,62,2.0,5.0,90,0.00,,,0.00,Wunderground v.1.13,2013-04-23 08:14:00,
2013-04-23 04:20:00,66.4,63.4,30.03,ENE,67,2.0,7.0,90,0.00,,,0.00,Wunderground v.1.13,2013-04-23 08:20:00,
2013-04-23 04:26:00,66.4,63.4,30.03,ENE,72,2.0,7.0,90,0.00,,,0.00,Wunderground v.1.13,2013-04-23 08:26:00,
2013-04-23 04:32:00,66.3,63.3,30.03,ENE,71,3.0,7.0,90,0.00,,,0.00,Wunderground v.1.13,2013-04-23 08:32:00,
2013-04-23 04:38:00,66.2,63.2,30.03,ENE,75,3.0,3.0,90,0.00,,,0.00,Wunderground v.1.13,2013-04-23 08:38:00,
2013-04-23 04:44:00,66.3,63.6,30.03,East,79,3.0,7.0,91,0.00,,,0.00,Wunderground v.1.13,2013-04-23 08:44:00,
2013-04-23 04:50:00,66.3,63.6,30.03,NE,45,2.0,7.0,91,0.00,,,0.00,Wunderground v.1.13,2013-04-23 08:50:00,
2013-04-23 04:56:00,66.3,63.3,30.03,ENE,76,1.0,7.0,90,0.00,,,0.00,Wunderground v.1.13,2013-04-23 08:56:00,
2013-04-23 05:02:00,66.3,63.6,30.03,ENE,62,2.0,3.0,91,0.00,,,0.00,Wunderground v.1.13,2013-04-23 09:02:00,
2013-04-23 05:08:00,66.4,63.7,30.03,East,82,2.0,3.0,91,0.00,,,0.00,Wunderground v.1.13,2013-04-23 09:08:00,
2013-04-23 05:14:00,66.3,63.6,30.03,East,89,1.0,2.0,91,0.00,,,0.00,Wunderground v.1.13,2013-04-23 09:14:00,
2013-04-23 05:20:00,66.4,63.7,30.03,East,82,2.0,13.0,91,0.00,,,0.00,Wunderground v.1.13,2013-04-23 09:20:00,
2013-04-23 05:26:00,66.4,63.4,30.03,ENE,69,1.0,13.0,90,0.00,,,0.00,Wunderground v.1.13,2013-04-23 09:26:00,
2013-04-23 05:32:00,66.4,63.7,30.03,ENE,69,1.0,13.0,91,0.00,,,0.00,Wunderground v.1.13,2013-04-23 09:32:00,
2013-04-23 05:38:00,66.3,63.3,30.03,ENE,74,1.0,7.0,90,0.00,,,0.00,Wunderground v.1.13,2013-04-23 09:38:00,
2013-04-23 05:44:00,66.1,63.1,30.03,NE,52,3.0,13.0,90,0.00,,,0.00,Wunderground v.1.13,2013-04-23 09:44:00,
2013-04-23 05:50:00,66.2,63.5,30.03,ENE,78,2.0,13.0,91,0.00,,,0.00,Wunderground v.1.13,2013-04-23 09:50:00,
2013-04-23 05:56:00,66.1,63.1,30.03,East,88,2.0,13.0,90,0.00,,,0.00,Wunderground v.1.13,2013-04-23 09:56:00,
2013-04-23 06:02:00,66.1,63.1,30.04,ENE,74,2.0,13.0,90,0.00,,,0.00,Wunderground v.1.13,2013-04-23 10:02:00,
2013-04-23 06:08:00,66.2,63.5,30.03,ENE,67,1.0,1.0,91,0.00,,,0.00,Wunderground v.1.13,2013-04-23 10:08:00,
2013-04-23 06:14:00,66.2,63.5,30.04,ENE,76,1.0,1.0,91,0.00,,,0.00,Wunderground v.1.13,2013-04-23 10:14:00,
2013-04-23 06:20:00,66.2,63.5,30.04,ENE,71,1.0,10.0,91,0.00,,,0.00,Wunderground v.1.13,2013-04-23 10:20:00,
2013-04-23 06:26:00,66.2,63.2,30.04,NE,49,0.0,10.0,90,0.00,,,0.00,Wunderground v.1.13,2013-04-23 10:26:00,
2013-04-23 06:32:00,66.1,63.4,30.04,ENE,76,0.0,10.0,91,0.00,,,0.00,Wunderground v.1.13,2013-04-23 10:32:00,
2013-04-23 06:38:00,66.1,63.1,30.04,ENE,61,0.0,10.0,90,0.00,,,0.00,Wunderground v.1.13,2013-04-23 10:38:00,
2013-04-23 06:44:00,66.0,63.0,30.04,ENE,76,1.0,10.0,90,0.00,,,0.00,Wunderground v.1.13,2013-04-23 10:44:00,
2013-04-23 06:50:00,66.0,63.0,30.05,ENE,71,1.0,10.0,90,0.00,,,0.00,Wunderground v.1.13,2013-04-23 10:50:00,
2013-04-23 06:56:00,66.0,63.3,30.05,NE,42,1.0,10.0,91,0.00,,,0.00,Wunderground v.1.13,2013-04-23 10:56:00,
2013-04-23 07:02:00,65.9,63.2,30.05,NE,34,1.0,10.0,91,0.00,,,0.00,Wunderground v.1.13,2013-04-23 11:02:00,
2013-04-23 07:08:00,65.9,63.2,30.06,NE,45,1.0,1.0,91,0.00,,,0.00,Wunderground v.1.13,2013-04-23 11:08:00,
2013-04-23 07:14:00,65.7,63.0,30.06,NE,55,1.0,8.0,91,0.00,,,0.00,Wunderground v.1.13,2013-04-23 11:14:00,
2013-04-23 07:20:00,65.6,62.9,30.06,ENE,57,3.0,5.0,91,0.00,,,0.00,Wunderground v.1.13,2013-04-23 11:20:00,
2013-04-23 07:26:00,65.6,62.9,30.06,NE,40,2.0,10.0,91,0.00,,,0.00,Wunderground v.1.13,2013-04-23 11:26:00,
2013-04-23 07:32:00,65.6,62.9,30.07,NE,46,2.0,10.0,91,0.00,,,0.00,Wunderground v.1.13,2013-04-23 11:32:00,
2013-04-23 07:38:00,65.7,63.0,30.07,ENE,69,1.0,10.0,91,0.00,,,0.00,Wunderground v.1.13,2013-04-23 11:38:00,
2013-04-23 07:44:00,65.7,63.0,30.07,ENE,57,1.0,10.0,91,0.00,,,0.00,Wunderground v.1.13,2013-04-23 11:44:00,
2013-04-23 07:50:00,65.7,63.0,30.07,ENE,74,1.0,10.0,91,0.00,,,0.00,Wunderground v.1.13,2013-04-23 11:50:00,
2013-04-23 07:56:00,65.8,63.1,30.07,ENE,60,1.0,10.0,91,0.00,,,0.00,Wunderground v.1.13,2013-04-23 11:56:00,
2013-04-23 08:02:00,65.8,62.8,30.07,ENE,58,2.0,10.0,90,0.00,,,0.00,Wunderground v.1.13,2013-04-23 12:02:00,
2013-04-23 08:08:00,66.0,63.0,30.07,ENE,67,1.0,1.0,90,0.00,,,0.00,Wunderground v.1.13,2013-04-23 12:08:00,
2013-04-23 08:14:00,66.1,63.1,30.07,NE,55,1.0,1.0,90,0.00,,,0.00,Wunderground v.1.13,2013-04-23 12:14:00,
2013-04-23 08:20:00,66.2,63.2,30.08,NE,49,1.0,10.0,90,0.00,,,0.00,Wunderground v.1.13,2013-04-23 12:20:00,
2013-04-23 08:26:00,66.1,62.8,30.08,NE,53,1.0,10.0,89,0.00,,,0.00,Wunderground v.1.13,2013-04-23 12:26:00,
2013-04-23 08:32:00,66.3,63.0,30.08,ENE,65,2.0,10.0,89,0.00,,,0.00,Wunderground v.1.13,2013-04-23 12:32:00,
2013-04-23 08:38:00,66.5,63.2,30.08,ENE,61,1.0,6.0,89,0.00,,,0.00,Wunderground v.1.13,2013-04-23 12:38:00,
2013-04-23 08:44:00,66.7,63.4,30.08,NE,51,1.0,10.0,89,0.00,,,0.00,Wunderground v.1.13,2013-04-23 12:44:00,
2013-04-23 08:50:00,66.9,63.6,30.08,NNE,33,1.0,10.0,89,0.00,,,0.00,Wunderground v.1.13,2013-04-23 12:50:00,
2013-04-23 08:56:00,67.3,63.6,30.09,NNE,22,1.0,10.0,88,0.00,,,0.00,Wunderground v.1.13,2013-04-23 12:56:00,
2013-04-23 09:02:00,67.6,63.9,30.09,NE,48,0.0,10.0,88,0.00,,,0.00,Wunderground v.1.13,2013-04-23 13:02:00,
2013-04-23 09:08:00,67.9,63.9,30.09,NE,45,0.0,0.0,87,0.00,,,0.00,Wunderground v.1.13,2013-04-23 13:08:00,
2013-04-23 09:14:00,68.1,64.1,30.09,NNE,28,0.0,0.0,87,0.00,,,0.00,Wunderground v.1.13,2013-04-23 13:14:00,
2013-04-23 09:20:00,68.4,64.0,30.09,ENE,76,0.0,11.0,86,0.00,,,0.00,Wunderground v.1.13,2013-04-23 13:20:00,
2013-04-23 09:26:00,68.4,63.7,30.10,NE,55,0.0,11.0,85,0.00,,,0.00,Wunderground v.1.13,2013-04-23 13:26:00,
2013-04-23 09:32:00,68.7,64.3,30.10,ESE,107,0.0,11.0,86,0.00,,,0.00,Wunderground v.1.13,2013-04-23 13:32:00,
2013-04-23 09:38:00,69.0,64.3,30.09,ENE,57,1.0,11.0,85,0.00,,,0.00,Wunderground v.1.13,2013-04-23 13:38:00,
2013-04-23 09:44:00,69.5,64.1,30.10,ENE,63,1.0,4.0,83,0.00,,,0.00,Wunderground v.1.13,2013-04-23 13:44:00,
2013-04-23 09:50:00,69.8,64.4,30.10,ENE,61,2.0,2.0,83,0.00,,,0.00,Wunderground v.1.13,2013-04-23 13:50:00,
2013-04-23 09:56:00,70.1,64.3,30.10,ENE,75,0.0,11.0,82,0.00,,,0.00,Wunderground v.1.13,2013-04-23 13:56:00,
2013-04-23 10:02:00,70.2,64.1,30.11,ENE,75,1.0,11.0,81,0.00,,,0.00,Wunderground v.1.13,2013-04-23 14:02:00,
2013-04-23 10:08:00,70.4,64.6,30.10,ENE,71,2.0,2.0,82,0.00,,,0.00,Wunderground v.1.13,2013-04-23 14:08:00,
2013-04-23 10:14:00,70.8,64.7,30.11,NE,41,1.0,5.0,81,0.00,,,0.00,Wunderground v.1.13,2013-04-23 14:14:00,
2013-04-23 10:20:00,71.0,64.5,30.11,ENE,73,1.0,11.0,80,0.00,,,0.00,Wunderground v.1.13,2013-04-23 14:20:00,
2013-04-23 10:26:00,71.3,64.8,30.11,ENE,67,0.0,11.0,80,0.00,,,0.00,Wunderground v.1.13,2013-04-23 14:26:00,
2013-04-23 10:32:00,71.7,64.8,30.11,ENE,65,0.0,11.0,79,0.00,,,0.00,Wunderground v.1.13,2013-04-23 14:32:00,
2013-04-23 10:38:00,72.4,65.2,30.11,East,92,0.0,11.0,78,0.00,,,0.00,Wunderground v.1.13,2013-04-23 14:38:00,
2013-04-23 10:44:00,72.9,65.6,30.11,East,79,0.0,11.0,78,0.00,,,0.00,Wunderground v.1.13,2013-04-23 14:44:00,
2013-04-23 10:50:00,73.0,65.0,30.11,East,94,0.0,11.0,76,0.00,,,0.00,Wunderground v.1.13,2013-04-23 14:50:00,
2013-04-23 10:56:00,73.3,65.3,30.11,ENE,69,0.0,11.0,76,0.00,,,0.00,Wunderground v.1.13,2013-04-23 14:56:00,
2013-04-23 11:02:00,73.5,65.5,30.11,ENE,61,1.0,11.0,76,0.00,,,0.00,Wunderground v.1.13,2013-04-23 15:02:00,
2013-04-23 11:08:00,73.7,65.7,30.11,ENE,71,1.0,1.0,76,0.00,,,0.00,Wunderground v.1.13,2013-04-23 15:08:00,
2013-04-23 11:14:00,74.1,65.7,30.11,ENE,72,0.0,0.0,75,0.00,,,0.00,Wunderground v.1.13,2013-04-23 15:14:00,
2013-04-23 11:20:00,74.2,66.1,30.11,East,83,0.0,7.0,76,0.00,,,0.00,Wunderground v.1.13,2013-04-23 15:20:00,
2013-04-23 11:26:00,74.8,66.3,30.11,ENE,68,0.0,7.0,75,0.00,,,0.00,Wunderground v.1.13,2013-04-23 15:26:00,
2013-04-23 11:32:00,75.2,66.3,30.11,NE,56,0.0,7.0,74,0.00,,,0.00,Wunderground v.1.13,2013-04-23 15:32:00,
2013-04-23 11:38:00,75.5,66.2,30.11,ENE,63,0.0,7.0,73,0.00,,,0.00,Wunderground v.1.13,2013-04-23 15:38:00,
2013-04-23 11:44:00,76.0,66.3,30.11,ENE,63,0.0,7.0,72,0.00,,,0.00,Wunderground v.1.13,2013-04-23 15:44:00,
2013-04-23 11:50:00,76.0,66.3,30.11,NE,54,0.0,7.0,72,0.00,,,0.00,Wunderground v.1.13,2013-04-23 15:50:00,
2013-04-23 11:56:00,76.3,66.6,30.10,ESE,108,0.0,7.0,72,0.00,,,0.00,Wunderground v.1.13,2013-04-23 15:56:00,
2013-04-23 12:02:00,76.7,66.6,30.10,ENE,70,0.0,7.0,71,0.00,,,0.00,Wunderground v.1.13,2013-04-23 16:02:00,
2013-04-23 12:08:00,76.3,66.6,30.10,ENE,76,1.0,1.0,72,0.00,,,0.00,Wunderground v.1.13,2013-04-23 16:08:00,
2013-04-23 12:14:00,76.3,66.6,30.10,NE,44,1.0,1.0,72,0.00,,,0.00,Wunderground v.1.13,2013-04-23 16:14:00,
2013-04-23 12:20:00,76.7,67.0,30.09,NE,50,0.0,6.0,72,0.00,,,0.00,Wunderground v.1.13,2013-04-23 16:20:00,
2013-04-23 12:26:00,77.0,66.5,30.10,ENE,71,0.0,6.0,70,0.00,,,0.00,Wunderground v.1.13,2013-04-23 16:26:00,
2013-04-23 12:32:00,76.9,66.8,30.09,ESE,105,0.0,6.0,71,0.00,,,0.00,Wunderground v.1.13,2013-04-23 16:32:00,
2013-04-23 12:38:00,77.9,66.9,30.09,East,84,0.0,6.0,69,0.00,,,0.00,Wunderground v.1.13,2013-04-23 16:38:00,
2013-04-23 12:44:00,77.7,66.7,30.09,NE,53,1.0,6.0,69,0.00,,,0.00,Wunderground v.1.13,2013-04-23 16:44:00,
2013-04-23 12:50:00,78.1,67.5,30.09,ENE,76,1.0,6.0,70,0.00,,,0.00,Wunderground v.1.13,2013-04-23 16:50:00,
2013-04-23 12:56:00,78.7,67.2,30.08,ENE,69,1.0,6.0,68,0.00,,,0.00,Wunderground v.1.13,2013-04-23 16:56:00,
2013-04-23 13:02:00,78.6,66.7,30.08,ENE,69,1.0,6.0,67,0.00,,,0.00,Wunderground v.1.13,2013-04-23 17:02:00,
2013-04-23 13:08:00,78.5,66.6,30.08,ENE,69,1.0,1.0,67,0.00,,,0.00,Wunderground v.1.13,2013-04-23 17:08:00,
2013-04-23 13:14:00,78.8,66.9,30.07,ENE,68,1.0,1.0,67,0.00,,,0.00,Wunderground v.1.13,2013-04-23 17:14:00,
2013-04-23 13:20:00,79.3,67.0,30.07,NE,50,1.0,10.0,66,0.00,,,0.00,Wunderground v.1.13,2013-04-23 17:20:00,
2013-04-23 13:26:00,79.6,67.2,30.07,ENE,63,1.0,10.0,66,0.00,,,0.00,Wunderground v.1.13,2013-04-23 17:26:00,
2013-04-23 13:32:00,80.0,67.2,30.07,East,85,0.0,10.0,65,0.00,,,0.00,Wunderground v.1.13,2013-04-23 17:32:00,
2013-04-23 13:38:00,80.1,66.8,30.06,NE,50,0.0,10.0,64,0.00,,,0.00,Wunderground v.1.13,2013-04-23 17:38:00,
2013-04-23 13:44:00,80.4,67.1,30.06,NE,46,0.0,10.0,64,0.00,,,0.00,Wunderground v.1.13,2013-04-23 17:44:00,
2013-04-23 13:50:00,80.4,66.6,30.06,ENE,65,0.0,10.0,63,0.00,,,0.00,Wunderground v.1.13,2013-04-23 17:50:00,
2013-04-23 13:56:00,80.6,66.8,30.06,East,101,0.0,10.0,63,0.00,,,0.00,Wunderground v.1.13,2013-04-23 17:56:00,
2013-04-23 14:02:00,80.8,67.0,30.06,ENE,59,0.0,10.0,63,0.00,,,0.00,Wunderground v.1.13,2013-04-23 18:02:00,
2013-04-23 14:08:00,80.5,66.3,30.06,ENE,65,0.0,0.0,62,0.00,,,0.00,Wunderground v.1.13,2013-04-23 18:08:00,
2013-04-23 14:14:00,80.7,66.5,30.06,ENE,59,0.0,0.0,62,0.00,,,0.00,Wunderground v.1.13,2013-04-23 18:14:00,
2013-04-23 14:20:00,80.8,66.6,30.05,ENE,63,0.0,3.0,62,0.00,,,0.00,Wunderground v.1.13,2013-04-23 18:20:00,
2013-04-23 14:26:00,81.0,67.2,30.06,NE,47,0.0,3.0,63,0.00,,,0.00,Wunderground v.1.13,2013-04-23 18:26:00,
2013-04-23 14:32:00,81.2,66.5,30.05,ENE,59,0.0,3.0,61,0.00,,,0.00,Wunderground v.1.13,2013-04-23 18:32:00,
2013-04-23 14:38:00,81.2,66.5,30.05,ENE,59,0.0,3.0,61,0.00,,,0.00,Wunderground v.1.13,2013-04-23 18:38:00,
2013-04-23 14:44:00,81.6,66.8,30.05,NNE,33,0.0,3.0,61,0.00,,,0.00,Wunderground v.1.13,2013-04-23 18:44:00,
2013-04-23 14:50:00,82.0,66.7,30.05,ENE,78,1.0,3.0,60,0.00,,,0.00,Wunderground v.1.13,2013-04-23 18:50:00,
2013-04-23 14:56:00,81.9,66.6,30.05,NE,52,1.0,3.0,60,0.00,,,0.00,Wunderground v.1.13,2013-04-23 18:56:00,
2013-04-23 15:02:00,81.5,66.3,30.05,ENE,69,0.0,3.0,60,0.00,,,0.00,Wunderground v.1.13,2013-04-23 19:02:00,
2013-04-23 15:08:00,81.5,66.3,30.05,NE,41,0.0,0.0,60,0.00,,,0.00,Wunderground v.1.13,2013-04-23 19:08:00,
2013-04-23 15:14:00,81.6,66.4,30.05,ENE,74,1.0,4.0,60,0.00,,,0.00,Wunderground v.1.13,2013-04-23 19:14:00,
2013-04-23 15:20:00,81.2,66.0,30.04,NE,37,1.0,7.0,60,0.00,,,0.00,Wunderground v.1.13,2013-04-23 19:20:00,
2013-04-23 15:26:00,81.4,66.2,30.04,ENE,63,0.0,7.0,60,0.00,,,0.00,Wunderground v.1.13,2013-04-23 19:26:00,
2013-04-23 15:32:00,82.0,65.8,30.04,NE,53,0.0,7.0,58,0.00,,,0.00,Wunderground v.1.13,2013-04-23 19:32:00,
2013-04-23 15:38:00,82.3,66.5,30.04,ENE,69,0.0,7.0,59,0.00,,,0.00,Wunderground v.1.13,2013-04-23 19:38:00,
2013-04-23 15:44:00,82.1,65.4,30.04,ENE,64,0.0,7.0,57,0.00,,,0.00,Wunderground v.1.13,2013-04-23 19:44:00,
2013-04-23 15:50:00,82.4,65.6,30.04,ENE,72,0.0,7.0,57,0.00,,,0.00,Wunderground v.1.13,2013-04-23 19:50:00,
2013-04-23 15:56:00,82.7,65.9,30.03,ENE,59,0.0,7.0,57,0.00,,,0.00,Wunderground v.1.13,2013-04-23 19:56:00,
2013-04-23 16:02:00,82.5,65.2,30.03,ENE,59,0.0,7.0,56,0.00,,,0.00,Wunderground v.1.13,2013-04-23 20:02:00,
2013-04-23 16:08:00,82.2,64.4,30.03,NE,52,0.0,0.0,55,0.00,,,0.00,Wunderground v.1.13,2013-04-23 20:08:00,
2013-04-23 16:14:00,82.2,64.9,30.03,East,88,0.0,5.0,56,0.00,,,0.00,Wunderground v.1.13,2013-04-23 20:14:00,
2013-04-23 16:20:00,82.6,65.3,30.03,NE,39,0.0,6.0,56,0.00,,,0.00,Wunderground v.1.13,2013-04-23 20:20:00,
2013-04-23 16:26:00,82.7,64.4,30.03,ENE,74,0.0,6.0,54,0.00,,,0.00,Wunderground v.1.13,2013-04-23 20:26:00,
2013-04-23 16:32:00,82.2,64.4,30.02,ENE,63,0.0,6.0,55,0.00,,,0.00,Wunderground v.1.13,2013-04-23 20:32:00,
2013-04-23 16:38:00,82.1,64.3,30.02,ENE,74,1.0,6.0,55,0.00,,,0.00,Wunderground v.1.13,2013-04-23 20:38:00,
2013-04-23 16:44:00,82.4,64.6,30.02,ENE,68,0.0,6.0,55,0.00,,,0.00,Wunderground v.1.13,2013-04-23 20:44:00,
2013-04-23 16:50:00,82.6,64.3,30.02,East,80,0.0,6.0,54,0.00,,,0.00,Wunderground v.1.13,2013-04-23 20:50:00,
2013-04-23 16:56:00,82.7,64.9,30.02,NE,55,0.0,6.0,55,0.00,,,0.00,Wunderground v.1.13,2013-04-23 20:56:00,
2013-04-23 17:02:00,82.7,65.9,30.02,NE,55,0.0,6.0,57,0.00,,,0.00,Wunderground v.1.13,2013-04-23 21:02:00,
2013-04-23 17:08:00,83.0,65.7,30.02,NE,52,0.0,0.0,56,0.00,,,0.00,Wunderground v.1.13,2013-04-23 21:08:00,
2013-04-23 17:14:00,82.9,65.6,30.02,NE,41,0.0,0.0,56,0.00,,,0.00,Wunderground v.1.13,2013-04-23 21:14:00,
2013-04-23 17:20:00,83.0,65.7,30.02,NE,38,0.0,5.0,56,0.00,,,0.00,Wunderground v.1.13,2013-04-23 21:20:00,
2013-04-23 17:26:00,83.4,66.1,30.02,NE,37,0.0,5.0,56,0.00,,,0.00,Wunderground v.1.13,2013-04-23 21:26:00,
2013-04-23 17:32:00,83.6,64.7,30.02,East,79,0.0,5.0,53,0.00,,,0.00,Wunderground v.1.13,2013-04-23 21:32:00,
2013-04-23 17:38:00,83.3,64.9,30.02,NE,55,0.0,5.0,54,0.00,,,0.00,Wunderground v.1.13,2013-04-23 21:38:00,
2013-04-23 17:44:00,82.9,64.0,30.02,ENE,76,0.0,5.0,53,0.00,,,0.00,Wunderground v.1.13,2013-04-23 21:44:00,
2013-04-23 17:50:00,82.8,63.9,30.02,ENE,78,0.0,5.0,53,0.00,,,0.00,Wunderground v.1.13,2013-04-23 21:50:00,
2013-04-23 17:56:00,83.0,64.6,30.02,ENE,74,0.0,5.0,54,0.00,,,0.00,Wunderground v.1.13,2013-04-23 21:56:00,
2013-04-23 18:02:00,83.0,65.2,30.02,NE,47,0.0,5.0,55,0.00,,,0.00,Wunderground v.1.13,2013-04-23 22:02:00,
2013-04-23 18:08:00,83.0,65.7,30.02,NE,41,0.0,0.0,56,0.00,,,0.00,Wunderground v.1.13,2013-04-23 22:08:00,
2013-04-23 18:14:00,82.6,67.8,30.02,North,350,0.0,0.0,61,0.00,,,0.00,Wunderground v.1.13,2013-04-23 22:14:00,
2013-04-23 18:20:00,82.3,68.0,30.02,NNW,329,0.0,0.0,62,0.00,,,0.00,Wunderground v.1.13,2013-04-23 22:20:00,
2013-04-23 18:26:00,82.0,68.2,30.02,NNW,341,0.0,0.0,63,0.00,,,0.00,Wunderground v.1.13,2013-04-23 22:26:00,
2013-04-23 18:32:00,81.7,68.3,30.02,NW,317,0.0,0.0,64,0.00,,,0.00,Wunderground v.1.13,2013-04-23 22:32:00,
2013-04-23 18:38:00,81.0,68.1,30.03,NNW,328,1.0,7.0,65,0.00,,,0.00,Wunderground v.1.13,2013-04-23 22:38:00,
2013-04-23 18:44:00,80.3,68.3,30.03,WNW,302,1.0,7.0,67,0.00,,,0.00,Wunderground v.1.13,2013-04-23 22:44:00,
2013-04-23 18:50:00,79.9,68.0,30.03,NW,325,0.0,1.0,67,0.00,,,0.00,Wunderground v.1.13,2013-04-23 22:50:00,
2013-04-23 18:56:00,79.3,68.2,30.03,NW,307,1.0,1.0,69,0.00,,,0.00,Wunderground v.1.13,2013-04-23 22:56:00,
2013-04-23 19:02:00,79.1,68.1,30.03,NNW,338,0.0,1.0,69,0.00,,,0.00,Wunderground v.1.13,2013-04-23 23:02:00,
2013-04-23 19:08:00,78.6,68.0,30.03,NW,322,0.0,5.0,70,0.00,,,0.00,Wunderground v.1.13,2013-04-23 23:08:00,
2013-04-23 19:14:00,78.3,68.1,30.03,North,355,1.0,1.0,71,0.00,,,0.00,Wunderground v.1.13,2013-04-23 23:14:00,
2013-04-23 19:20:00,77.9,67.7,30.03,NW,314,1.0,10.0,71,0.00,,,0.00,Wunderground v.1.13,2013-04-23 23:20:00,
2013-04-23 19:26:00,77.7,68.0,30.03,NW,323,1.0,10.0,72,0.00,,,0.00,Wunderground v.1.13,2013-04-23 23:26:00,
2013-04-23 19:32:00,77.6,67.9,30.03,NW,321,0.0,10.0,72,0.00,,,0.00,Wunderground v.1.13,2013-04-23 23:32:00,
2013-04-23 19:38:00,77.4,68.1,30.03,NW,319,0.0,10.0,73,0.00,,,0.00,Wunderground v.1.13,2013-04-23 23:38:00,
2013-04-23 19:44:00,77.2,67.9,30.04,NW,318,0.0,10.0,73,0.00,,,0.00,Wunderground v.1.13,2013-04-23 23:44:00,
2013-04-23 19:50:00,76.9,68.0,30.04,NW,311,0.0,10.0,74,0.00,,,0.00,Wunderground v.1.13,2013-04-23 23:50:00,
2013-04-23 19:56:00,76.7,67.8,30.04,NW,312,0.0,10.0,74,0.00,,,0.00,Wunderground v.1.13,2013-04-23 23:56:00,
2013-04-23 20:02:00,76.6,68.1,30.04,NW,312,0.0,10.0,75,0.00,,,0.00,Wunderground v.1.13,2013-04-24 00:02:00,
2013-04-23 20:08:00,76.5,68.0,30.04,NW,323,0.0,0.0,75,0.00,,,0.00,Wunderground v.1.13,2013-04-24 00:08:00,
2013-04-23 20:14:00,77.0,63.9,30.04,ENE,78,1.0,3.0,64,0.00,,,0.00,Wunderground v.1.13,2013-04-24 00:14:00,
2013-04-23 20:20:00,78.0,63.9,30.04,ENE,78,3.0,3.0,62,0.00,,,0.00,Wunderground v.1.13,2013-04-24 00:20:00,
2013-04-23 20:26:00,78.5,63.5,30.04,ENE,67,3.0,12.0,60,0.00,,,0.00,Wunderground v.1.13,2013-04-24 00:26:00,
2013-04-23 20:32:00,78.5,63.0,30.04,East,89,6.0,12.0,59,0.00,,,0.00,Wunderground v.1.13,2013-04-24 00:32:00,
2013-04-23 20:38:00,78.4,62.9,30.04,East,86,8.0,10.0,59,0.00,,,0.00,Wunderground v.1.13,2013-04-24 00:38:00,
2013-04-23 20:44:00,78.3,62.8,30.04,East,79,8.0,13.0,59,0.00,,,0.00,Wunderground v.1.13,2013-04-24 00:44:00,
2013-04-23 20:50:00,78.1,63.1,30.05,ENE,78,9.0,11.0,60,0.00,,,0.00,Wunderground v.1.13,2013-04-24 00:50:00,
2013-04-23 20:56:00,77.9,61.4,30.05,ENE,63,10.0,10.0,57,0.00,,,0.00,Wunderground v.1.13,2013-04-24 00:56:00,
2013-04-23 21:02:00,77.7,61.7,30.05,ENE,65,9.0,13.0,58,0.00,,,0.00,Wunderground v.1.13,2013-04-24 01:02:00,
2013-04-23 21:08:00,77.6,62.6,30.05,East,82,9.0,9.0,60,0.00,,,0.00,Wunderground v.1.13,2013-04-24 01:08:00,
2013-04-23 21:14:00,77.4,61.9,30.06,East,88,8.0,10.0,59,0.00,,,0.00,Wunderground v.1.13,2013-04-24 01:14:00,
2013-04-23 21:20:00,77.0,62.5,30.06,East,80,8.0,16.0,61,0.00,,,0.00,Wunderground v.1.13,2013-04-24 01:20:00,
2013-04-23 21:26:00,76.7,62.2,30.06,ENE,66,7.0,16.0,61,0.00,,,0.00,Wunderground v.1.13,2013-04-24 01:26:00,
2013-04-23 21:32:00,76.5,62.0,30.06,East,96,8.0,16.0,61,0.00,,,0.00,Wunderground v.1.13,2013-04-24 01:32:00,
2013-04-23 21:38:00,76.4,62.0,30.07,ENE,73,8.0,16.0,61,0.00,,,0.00,Wunderground v.1.13,2013-04-24 01:38:00,
2013-04-23 21:44:00,76.1,62.1,30.07,East,84,9.0,14.0,62,0.00,,,0.00,Wunderground v.1.13,2013-04-24 01:44:00,
2013-04-23 21:50:00,75.9,62.4,30.07,ENE,74,9.0,16.0,63,0.00,,,0.00,Wunderground v.1.13,2013-04-24 01:50:00,
2013-04-23 21:56:00,75.6,61.7,30.07,East,82,9.0,16.0,62,0.00,,,0.00,Wunderground v.1.13,2013-04-24 01:56:00,
2013-04-23 22:02:00,75.3,62.3,30.07,ENE,60,9.0,16.0,64,0.00,,,0.00,Wunderground v.1.13,2013-04-24 02:02:00,
2013-04-23 22:08:00,75.0,62.4,30.08,ENE,71,8.0,9.0,65,0.00,,,0.00,Wunderground v.1.13,2013-04-24 02:08:00,
2013-04-23 22:14:00,74.8,62.7,30.08,ENE,57,8.0,12.0,66,0.00,,,0.00,Wunderground v.1.13,2013-04-24 02:14:00,
2013-04-23 22:20:00,74.4,62.3,30.08,ESE,111,6.0,20.0,66,0.00,,,0.00,Wunderground v.1.13,2013-04-24 02:20:00,
2013-04-23 22:26:00,74.2,63.0,30.09,ENE,63,6.0,20.0,68,0.00,,,0.00,Wunderground v.1.13,2013-04-24 02:26:00,
2013-04-23 22:32:00,73.9,62.7,30.08,ENE,72,6.0,20.0,68,0.00,,,0.00,Wunderground v.1.13,2013-04-24 02:32:00,
2013-04-23 22:38:00,73.7,62.5,30.09,ENE,71,6.0,7.0,68,0.00,,,0.00,Wunderground v.1.13,2013-04-24 02:38:00,
2013-04-23 22:44:00,73.7,62.1,30.09,ENE,63,5.0,20.0,67,0.00,,,0.00,Wunderground v.1.13,2013-04-24 02:44:00,
2013-04-23 22:52:00,73.6,62.0,30.09,East,96,2.0,20.0,67,0.00,,,0.00,Wunderground v.1.13,2013-04-24 02:52:00,
2013-04-23 22:58:00,73.5,61.9,30.10,ESE,115,1.0,20.0,67,0.00,,,0.00,Wunderground v.1.13,2013-04-24 02:58:00,
2013-04-23 23:04:00,73.4,62.2,30.10,East,83,0.0,20.0,68,0.00,,,0.00,Wunderground v.1.13,2013-04-24 03:04:00,
2013-04-23 23:10:00,73.1,62.3,30.09,ENE,71,0.0,0.0,69,0.00,,,0.00,Wunderground v.1.13,2013-04-24 03:10:00,
2013-04-23 23:16:00,72.8,62.0,30.10,SSE,154,0.0,13.0,69,0.00,,,0.00,Wunderground v.1.13,2013-04-24 03:16:00,
2013-04-23 23:22:00,72.7,62.3,30.09,ENE,75,0.0,13.0,70,0.00,,,0.00,Wunderground v.1.13,2013-04-24 03:22:00,
2013-04-23 23:28:00,72.5,61.7,30.10,ENE,68,0.0,13.0,69,0.00,,,0.00,Wunderground v.1.13,2013-04-24 03:28:00,
2013-04-23 23:34:00,72.4,61.7,30.10,ESE,113,0.0,13.0,69,0.00,,,0.00,Wunderground v.1.13,2013-04-24 03:34:00,
2013-04-23 23:40:00,72.2,61.9,30.10,ENE,78,0.0,13.0,70,0.00,,,0.00,Wunderground v.1.13,2013-04-24 03:40:00,
2013-04-23 23:48:00,71.8,61.5,30.10,ENE,72,0.0,13.0,70,0.00,,,0.00,Wunderground v.1.13,2013-04-24 03:48:00,
2013-04-23 23:54:00,71.5,62.0,30.10,East,96,0.0,13.0,72,0.00,,,0.00,Wunderground v.1.13,2013-04-24 03:54:00,